Tallahassee, FL

10:00 PM EDT on August 29, 2014 (GMT -0400)
Rickards High School WeatherSTEM | Change Station
CLOSE
Current Station
Personal Weather Station
Location: Tallahassee, FL
Elevation: 138 ft
Nearby Weather Stations

Elev 138 ft 30.41 °N, 84.26 °W | Updated 6 minutes ago

Mostly Cloudy
Mostly Cloudy
77.9 °F
Feels Like 80 °F
N
0.0
Wind Variable Wind from North
Gusts 0.0 mph

Today
High -- | Low -- °F
--% Chance of Precip.
Yesterday
High -- | Low -- °F
Precip. -- in
7:12 AM 8:03 PM
Waxing Crescent, 18% visible
Pressure 30.07 in
Visibility 10.0 miles
Clouds Scattered Clouds 11000 ft
Mostly Cloudy 25000 ft
Heat Index 80 °F
Dew Point 77 °F
Humidity 98%
Rainfall 0.27 in
Snow Depth Not available.
UV 0.0 out of 12
Pollen 6.60 out of 12
Air Quality Not available.
Flu Activity Not available.
METAR KTLH 300153Z 18004KT 10SM SCT110 BKN250 27/24 A3007 RMK AO2 SLP182 T02670244

More Conditions Fewer Conditions

Pressure 30.07 in
Visibility 10.0 miles
Clouds Scattered Clouds 11000 ft
Mostly Cloudy 25000 ft
Heat Index 80 °F
Dew Point 77 °F
Humidity 98%
Rainfall 0.27 in
Snow Depth Not available.
UV 0.0 out of 12
Pollen 6.60 out of 12
Air Quality Not available.
Flu Activity Not available.
METAR KTLH 300153Z 18004KT 10SM SCT110 BKN250 27/24 A3007 RMK AO2 SLP182 T02670244

More Conditions Fewer Conditions

10-Day Weather Forecast

Almanac

Astronomy

Aug. 29, 2014 Rise Set
Actual Time 7:12 AM EDT 8:03 PM EDT
Civil Twilight 6:47 AM EDT 8:27 PM EDT
Nautical Twilight 6:18 AM EDT 8:56 PM EDT
Astronomical Twilight 5:48 AM EDT 9:26 PM EDT
Moon 10:42 AM EDT (8/29) 10:20 PM EDT (8/29)
Length of Visible Light 13h 40m
Length of Day
12h 51m
Tomorrow will be 1m 44s shorter.
Waxing Crescent, 18% of the Moon is Illuminated
Today
Waxing Crescent
Sep 2
First Quarter
Sep 8
Full
Sep 15
Last Quarter
Sep 24
New

Today's Extremes

State Highs State Lows

Community

WunderPhotos

Upload Photos

1,748,405 photos uploaded!

Nearby

Snow Depth

Station Depth Elevation
No new snow has been reported.

Earthquake Activity

City Distance Mag. Time & Date
No recent earthquake activity has been reported nearby.
Minimum magnitude displayed is 2.5.

Coastal Water Temperatures

Place Temperature
Apalachicola, FL 87.1 °F
Panama City, FL 86.0 °F

Nearby Weather Stations